Time;durP1;ratioP1;P1;durP2;ratioP2;P2;SDS_P1;SDS_P2;PMS_P1;PMS_P2;Temp;Humidity;BMP_temperature;BMP_pressure;BME280_temperature;BME280_humidity;BME280_pressure;Samples;Min_cycle;Max_cycle;Signal;HPM_P1;HPM_P2
2023/05/22 00:00:39;;;;;;;91.10;58.57;;;;;;;;;;5048438;28;20490;-64
2023/05/22 00:03:05;;;;;;;159.50;73.93;;;;;;;;;;5033672;28;20163;-64
2023/05/22 00:05:33;;;;;;;146.13;74.10;;;;;;;;;;5028327;28;20080;-64
2023/05/22 00:07:59;;;;;;;201.23;96.00;;;;;;;;;;5028379;28;20053;-64
2023/05/22 00:10:25;;;;;;;250.93;106.20;;;;;;;;;;5028117;28;20542;-64
2023/05/22 00:12:51;;;;;;;239.23;105.27;;;;;;;;;;5028069;28;20057;-64
2023/05/22 00:15:17;;;;;;;256.23;109.57;;;;;;;;;;5028273;28;20507;-64
2023/05/22 00:17:43;;;;;;;204.47;94.57;;;;;;;;;;5028229;28;20594;-64
2023/05/22 00:20:10;;;;;;;357.47;133.13;;;;;;;;;;5028478;28;20052;-65
2023/05/22 00:22:36;;;;;;;291.37;118.43;;;;;;;;;;5028380;28;20079;-65
2023/05/22 00:25:05;;;;;;;399.57;140.17;;;;;;;;;;5027261;28;20095;-65
2023/05/22 00:27:32;;;;;;;405.53;142.20;;;;;;;;;;5028217;28;20041;-64
2023/05/22 00:29:58;;;;;;;452.47;150.97;;;;;;;;;;5028315;28;20474;-65
2023/05/22 00:32:25;;;;;;;474.73;159.73;;;;;;;;;;5027354;28;20132;-65
2023/05/22 00:34:51;;;;;;;365.93;128.97;;;;;;;;;;5027979;28;20060;-64
2023/05/22 00:37:20;;;;;;;229.27;105.90;;;;;;;;;;5028069;28;20042;-64
2023/05/22 00:39:46;;;;;;;125.07;72.17;;;;;;;;;;5028090;28;20081;-64
2023/05/22 00:42:13;;;;;;;373.53;125.27;;;;;;;;;;5043372;28;20041;-65
2023/05/22 00:44:39;;;;;;;404.43;135.27;;;;;;;;;;5047957;28;20107;-65
2023/05/22 00:47:05;;;;;;;349.60;127.70;;;;;;;;;;5047171;28;20057;-65
2023/05/22 00:49:31;;;;;;;333.97;119.97;;;;;;;;;;5048914;28;20048;-65
2023/05/22 00:51:57;;;;;;;251.33;100.67;;;;;;;;;;5052069;28;20045;-65
2023/05/22 00:54:23;;;;;;;411.00;136.93;;;;;;;;;;5051238;28;20060;-65
2023/05/22 00:56:50;;;;;;;149.73;77.77;;;;;;;;;;5052262;28;20110;-65
2023/05/22 00:59:16;;;;;;;308.97;112.53;;;;;;;;;;5051555;28;20049;-65
2023/05/22 01:01:43;;;;;;;277.80;104.87;;;;;;;;;;5051796;28;20041;-65
2023/05/22 01:04:10;;;;;;;213.53;95.50;;;;;;;;;;5051760;28;20037;-65
2023/05/22 01:06:36;;;;;;;392.40;129.47;;;;;;;;;;5051103;28;20123;-65
2023/05/22 01:09:03;;;;;;;302.70;116.57;;;;;;;;;;5051369;28;20049;-65
2023/05/22 01:11:48;;;;;;;471.80;153.13;;;;;;;;;;5039180;28;20458;-65
2023/05/22 01:14:36;;;;;;;213.13;92.47;;;;;;;;;;5030440;28;20049;-65
2023/05/22 01:17:39;;;;;;;380.27;130.77;;;;;;;;;;5031421;28;20041;-65
2023/05/22 01:20:15;;;;;;;370.23;130.90;;;;;;;;;;5027056;28;20562;-65
2023/05/22 01:22:48;;;;;;;187.77;89.63;;;;;;;;;;5031221;28;20049;-65
2023/05/22 01:25:33;;;;;;;328.70;120.50;;;;;;;;;;5031322;28;20042;-65
2023/05/22 01:27:59;;;;;;;360.67;130.60;;;;;;;;;;5031487;28;20052;-65
2023/05/22 01:30:44;;;;;;;376.90;136.90;;;;;;;;;;5050794;28;20315;-65
2023/05/22 01:33:11;;;;;;;287.03;116.03;;;;;;;;;;5050972;28;20057;-64
2023/05/22 01:35:39;;;;;;;355.43;129.07;;;;;;;;;;5051279;28;20065;-65
2023/05/22 01:38:06;;;;;;;281.97;114.83;;;;;;;;;;5050090;28;20099;-65
2023/05/22 01:40:33;;;;;;;426.37;140.57;;;;;;;;;;5049811;28;20143;-65
2023/05/22 01:42:59;;;;;;;419.07;146.57;;;;;;;;;;5050756;28;20037;-65
2023/05/22 01:45:25;;;;;;;291.17;115.37;;;;;;;;;;5050781;28;20067;-65
2023/05/22 01:47:51;;;;;;;292.60;118.53;;;;;;;;;;5050587;28;20041;-65
2023/05/22 01:50:18;;;;;;;369.87;135.80;;;;;;;;;;5050816;28;20044;-65
2023/05/22 01:52:44;;;;;;;345.13;126.93;;;;;;;;;;5050746;28;20049;-64
2023/05/22 01:55:19;;;;;;;377.03;132.53;;;;;;;;;;5050815;28;20140;-65
2023/05/22 01:57:50;;;;;;;464.93;154.27;;;;;;;;;;5050360;28;20052;-65
2023/05/22 02:00:18;;;;;;;327.97;130.50;;;;;;;;;;5029534;28;20053;-65
2023/05/22 02:02:53;;;;;;;209.30;97.67;;;;;;;;;;5038901;28;20049;-65
2023/05/22 02:05:21;;;;;;;369.17;135.50;;;;;;;;;;5050986;28;20514;-65
2023/05/22 02:07:47;;;;;;;349.63;128.23;;;;;;;;;;5050747;28;20049;-65
2023/05/22 02:10:15;;;;;;;462.53;151.03;;;;;;;;;;5049102;28;20363;-65
2023/05/22 02:12:41;;;;;;;230.87;105.60;;;;;;;;;;5049787;28;20041;-65
2023/05/22 02:15:08;;;;;;;332.77;127.40;;;;;;;;;;5050235;28;20040;-64
2023/05/22 02:17:39;;;;;;;220.03;101.10;;;;;;;;;;5049206;28;20126;-65
2023/05/22 02:20:06;;;;;;;418.23;149.27;;;;;;;;;;5050378;28;20053;-64
2023/05/22 02:22:32;;;;;;;383.23;136.53;;;;;;;;;;5049432;28;20530;-64
2023/05/22 02:24:58;;;;;;;233.80;108.63;;;;;;;;;;5048424;28;20412;-64
2023/05/22 02:27:24;;;;;;;355.00;133.70;;;;;;;;;;5048576;28;20045;-64
2023/05/22 02:29:50;;;;;;;399.33;142.77;;;;;;;;;;5049823;28;20048;-65
2023/05/22 02:32:16;;;;;;;275.57;117.07;;;;;;;;;;5049606;28;20061;-65
2023/05/22 02:34:42;;;;;;;204.67;102.37;;;;;;;;;;5050196;28;20048;-64
2023/05/22 02:37:08;;;;;;;369.47;136.20;;;;;;;;;;5050072;28;20053;-65
2023/05/22 02:39:34;;;;;;;380.70;136.17;;;;;;;;;;5044859;28;20098;-65
2023/05/22 02:42:01;;;;;;;316.47;127.97;;;;;;;;;;5049239;28;20526;-65
2023/05/22 02:44:27;;;;;;;371.30;139.30;;;;;;;;;;5050159;28;20057;-65
2023/05/22 02:46:53;;;;;;;378.20;138.27;;;;;;;;;;5049592;28;20083;-65
2023/05/22 02:49:19;;;;;;;380.23;137.87;;;;;;;;;;5048774;28;20183;-65
2023/05/22 02:51:46;;;;;;;456.30;150.73;;;;;;;;;;5048513;28;20446;-65
2023/05/22 02:54:14;;;;;;;328.17;126.13;;;;;;;;;;5049540;28;20574;-66
2023/05/22 02:56:40;;;;;;;314.53;124.50;;;;;;;;;;5047890;28;20094;-64
2023/05/22 02:59:06;;;;;;;298.93;123.47;;;;;;;;;;5047616;28;20049;-65
2023/05/22 03:01:33;;;;;;;437.80;145.97;;;;;;;;;;5049943;28;20135;-65
2023/05/22 03:03:59;;;;;;;357.47;127.93;;;;;;;;;;5049502;28;20052;-65
2023/05/22 03:06:25;;;;;;;439.93;149.77;;;;;;;;;;5049353;28;20045;-65
2023/05/22 03:08:52;;;;;;;339.93;125.17;;;;;;;;;;5048205;28;20056;-65
2023/05/22 03:11:18;;;;;;;204.27;96.17;;;;;;;;;;5049388;28;20103;-65
2023/05/22 03:13:44;;;;;;;344.83;129.17;;;;;;;;;;5048717;28;20049;-65
2023/05/22 03:16:10;;;;;;;370.77;133.60;;;;;;;;;;5048338;28;20045;-64
2023/05/22 03:18:36;;;;;;;483.17;157.23;;;;;;;;;;5038452;28;20084;-64
2023/05/22 03:21:02;;;;;;;537.83;161.33;;;;;;;;;;5048859;28;20514;-64
2023/05/22 03:23:29;;;;;;;445.00;150.00;;;;;;;;;;5049077;28;20056;-64
2023/05/22 03:25:55;;;;;;;286.83;111.70;;;;;;;;;;5035419;28;20052;-64
2023/05/22 03:28:21;;;;;;;370.13;130.60;;;;;;;;;;5027297;28;20057;-64
2023/05/22 03:30:47;;;;;;;377.20;129.40;;;;;;;;;;5028796;28;20064;-64
2023/05/22 03:33:13;;;;;;;367.37;132.40;;;;;;;;;;5029054;28;20046;-65
2023/05/22 03:35:42;;;;;;;443.53;143.90;;;;;;;;;;5029118;28;20053;-65
2023/05/22 03:38:08;;;;;;;383.83;133.83;;;;;;;;;;5031384;28;20052;-65
2023/05/22 03:40:34;;;;;;;360.07;128.57;;;;;;;;;;5028951;28;20407;-65
2023/05/22 03:43:00;;;;;;;328.00;128.67;;;;;;;;;;5028711;28;20119;-64
2023/05/22 03:45:26;;;;;;;355.47;124.80;;;;;;;;;;5028641;28;20044;-65
2023/05/22 03:47:52;;;;;;;315.63;128.80;;;;;;;;;;5028753;28;20495;-64
2023/05/22 03:50:18;;;;;;;298.03;116.30;;;;;;;;;;5028509;28;20412;-65
2023/05/22 03:52:44;;;;;;;415.40;146.07;;;;;;;;;;5033825;28;20080;-64
2023/05/22 03:55:10;;;;;;;281.13;110.40;;;;;;;;;;5048396;28;20041;-64
2023/05/22 03:57:36;;;;;;;205.97;95.73;;;;;;;;;;5047511;28;20087;-64
2023/05/22 04:00:08;;;;;;;417.37;150.03;;;;;;;;;;5047940;28;20057;-64
2023/05/22 04:02:37;;;;;;;443.47;157.53;;;;;;;;;;5043207;28;20049;-65
2023/05/22 04:05:04;;;;;;;383.13;139.77;;;;;;;;;;5028376;28;20504;-64
2023/05/22 04:07:31;;;;;;;390.30;131.20;;;;;;;;;;5028312;28;20525;-64
2023/05/22 04:09:57;;;;;;;307.20;119.57;;;;;;;;;;5028066;28;20049;-64
2023/05/22 04:12:23;;;;;;;254.03;106.40;;;;;;;;;;5027541;28;20044;-64
2023/05/22 04:14:49;;;;;;;356.27;130.77;;;;;;;;;;5027850;28;20152;-65
2023/05/22 04:17:15;;;;;;;251.80;108.23;;;;;;;;;;5028168;28;20057;-65
2023/05/22 04:19:41;;;;;;;405.80;139.80;;;;;;;;;;5028043;28;20065;-64
2023/05/22 04:22:07;;;;;;;377.93;131.47;;;;;;;;;;5027932;28;20514;-64
2023/05/22 04:24:33;;;;;;;385.33;131.10;;;;;;;;;;5048338;28;20462;-64
2023/05/22 04:27:01;;;;;;;188.87;97.03;;;;;;;;;;5047883;28;20124;-65
2023/05/22 04:29:27;;;;;;;333.43;122.03;;;;;;;;;;5047857;28;20094;-64
2023/05/22 04:31:54;;;;;;;277.87;120.07;;;;;;;;;;5046592;28;20096;-66
2023/05/22 04:34:20;;;;;;;238.70;108.40;;;;;;;;;;5042156;28;20049;-64
2023/05/22 04:36:46;;;;;;;313.07;119.00;;;;;;;;;;5047790;28;20589;-64
2023/05/22 04:39:13;;;;;;;324.20;114.97;;;;;;;;;;5047718;28;20468;-65
2023/05/22 04:41:39;;;;;;;220.87;97.77;;;;;;;;;;5047907;28;20048;-65
2023/05/22 04:44:06;;;;;;;430.97;136.87;;;;;;;;;;5030868;28;20507;-66
2023/05/22 04:46:33;;;;;;;328.93;118.00;;;;;;;;;;5028147;28;20056;-64
2023/05/22 04:49:00;;;;;;;306.33;118.07;;;;;;;;;;5027385;28;20059;-65
2023/05/22 04:51:26;;;;;;;401.23;128.97;;;;;;;;;;5027555;28;20048;-65
2023/05/22 04:53:54;;;;;;;384.17;132.07;;;;;;;;;;5027644;28;20067;-65
2023/05/22 04:56:23;;;;;;;326.23;127.10;;;;;;;;;;5027900;28;20566;-64
2023/05/22 04:58:49;;;;;;;342.73;129.10;;;;;;;;;;5027916;28;20054;-65
2023/05/22 05:01:15;;;;;;;281.77;112.90;;;;;;;;;;5028159;28;20095;-65
2023/05/22 05:03:43;;;;;;;322.87;122.40;;;;;;;;;;5039336;28;20044;-65
2023/05/22 05:06:11;;;;;;;249.00;105.30;;;;;;;;;;5030724;28;20053;-65
2023/05/22 05:08:37;;;;;;;398.47;136.63;;;;;;;;;;5027680;28;20115;-64
2023/05/22 05:11:03;;;;;;;302.67;123.13;;;;;;;;;;5027737;28;20401;-64
2023/05/22 05:13:29;;;;;;;305.43;121.63;;;;;;;;;;5037627;28;20053;-65
2023/05/22 05:15:57;;;;;;;480.63;146.93;;;;;;;;;;5047858;28;20107;-65
2023/05/22 05:18:23;;;;;;;161.83;90.10;;;;;;;;;;5046936;28;20049;-65
2023/05/22 05:20:49;;;;;;;244.43;106.60;;;;;;;;;;5047717;28;20102;-64
2023/05/22 05:23:15;;;;;;;229.87;103.40;;;;;;;;;;5046703;28;20124;-66
2023/05/22 05:25:41;;;;;;;289.77;117.93;;;;;;;;;;5045687;28;20524;-65
2023/05/22 05:28:10;;;;;;;285.23;112.33;;;;;;;;;;5045540;28;20049;-66
2023/05/22 05:30:40;;;;;;;171.43;92.77;;;;;;;;;;5031418;28;20056;-65
2023/05/22 05:33:06;;;;;;;197.10;95.47;;;;;;;;;;5026915;28;20065;-65
2023/05/22 05:35:32;;;;;;;123.20;76.40;;;;;;;;;;5027737;28;20053;-65
2023/05/22 05:37:58;;;;;;;166.30;83.63;;;;;;;;;;5031101;28;20047;-65
2023/05/22 05:40:24;;;;;;;215.37;98.60;;;;;;;;;;5030795;28;20078;-65
2023/05/22 05:42:50;;;;;;;190.20;93.90;;;;;;;;;;5032471;28;20037;-65
2023/05/22 05:45:17;;;;;;;241.17;107.07;;;;;;;;;;5049570;28;20119;-66
2023/05/22 05:47:43;;;;;;;219.37;98.40;;;;;;;;;;5050600;28;20128;-66
2023/05/22 05:50:10;;;;;;;162.40;86.37;;;;;;;;;;5050821;28;20130;-65
2023/05/22 05:52:36;;;;;;;168.00;90.13;;;;;;;;;;5049544;28;20067;-65
2023/05/22 05:55:02;;;;;;;220.27;100.17;;;;;;;;;;5047880;28;20045;-65
2023/05/22 05:57:29;;;;;;;168.30;87.20;;;;;;;;;;5050618;28;20625;-65
2023/05/22 05:59:55;;;;;;;176.13;87.43;;;;;;;;;;5050400;28;20048;-65
2023/05/22 06:02:22;;;;;;;196.60;92.63;;;;;;;;;;5031086;28;20053;-65
2023/05/22 06:04:48;;;;;;;201.87;95.23;;;;;;;;;;5042749;28;20045;-65
2023/05/22 06:07:15;;;;;;;171.70;87.97;;;;;;;;;;5050290;28;20124;-65
2023/05/22 06:09:41;;;;;;;195.50;89.97;;;;;;;;;;5049400;28;20055;-65
2023/05/22 06:12:11;;;;;;;218.87;95.53;;;;;;;;;;5047533;28;20483;-65
2023/05/22 06:14:38;;;;;;;184.87;88.53;;;;;;;;;;5036372;28;20156;-65
2023/05/22 06:17:07;;;;;;;164.13;81.93;;;;;;;;;;5029894;28;20273;-64
2023/05/22 06:19:33;;;;;;;169.53;81.00;;;;;;;;;;5029784;28;20053;-65
2023/05/22 06:21:59;;;;;;;203.30;90.80;;;;;;;;;;5030009;28;20045;-65
2023/05/22 06:24:26;;;;;;;168.30;81.17;;;;;;;;;;5036025;28;20565;-65
2023/05/22 06:26:52;;;;;;;130.60;71.57;;;;;;;;;;5048998;28;20411;-65
2023/05/22 06:29:18;;;;;;;126.07;69.90;;;;;;;;;;5041516;28;20084;-65
2023/05/22 06:31:44;;;;;;;160.03;80.30;;;;;;;;;;5032694;28;20057;-65
2023/05/22 06:34:10;;;;;;;103.27;62.73;;;;;;;;;;5031476;28;20099;-65
2023/05/22 06:36:36;;;;;;;147.83;76.57;;;;;;;;;;5049056;28;20466;-65
2023/05/22 06:39:02;;;;;;;161.80;81.33;;;;;;;;;;5048894;28;20045;-65
2023/05/22 06:41:28;;;;;;;131.50;72.17;;;;;;;;;;5029554;28;20045;-65
2023/05/22 06:43:54;;;;;;;109.50;65.03;;;;;;;;;;5029758;28;20042;-65
2023/05/22 06:46:20;;;;;;;108.10;64.73;;;;;;;;;;5028916;28;20428;-65
2023/05/22 06:48:46;;;;;;;99.37;60.03;;;;;;;;;;5028747;28;20115;-65
2023/05/22 06:51:13;;;;;;;83.97;53.90;;;;;;;;;;5029629;28;20421;-65
2023/05/22 06:53:40;;;;;;;82.77;54.97;;;;;;;;;;5038928;28;20083;-65
2023/05/22 06:56:06;;;;;;;87.87;55.03;;;;;;;;;;5039441;28;20507;-64
2023/05/22 06:58:32;;;;;;;117.90;65.50;;;;;;;;;;5033187;28;20140;-66
2023/05/22 07:00:59;;;;;;;85.53;55.53;;;;;;;;;;5047733;28;20044;-65
2023/05/22 07:03:26;;;;;;;93.27;59.00;;;;;;;;;;5049192;28;20095;-65
2023/05/22 07:05:53;;;;;;;97.43;58.33;;;;;;;;;;5046624;28;20053;-65
2023/05/22 07:08:19;;;;;;;111.93;62.40;;;;;;;;;;5046319;28;20052;-65
2023/05/22 07:10:45;;;;;;;93.40;57.83;;;;;;;;;;5037077;28;20045;-65
2023/05/22 07:13:12;;;;;;;98.70;59.00;;;;;;;;;;5045385;28;20084;-64
2023/05/22 07:15:38;;;;;;;185.90;81.63;;;;;;;;;;5057289;28;20126;-64
2023/05/22 07:18:04;;;;;;;138.30;70.13;;;;;;;;;;5049893;28;20041;-64
2023/05/22 07:20:30;;;;;;;73.67;49.83;;;;;;;;;;5050075;28;20052;-64
2023/05/22 07:22:57;;;;;;;56.83;46.10;;;;;;;;;;5030391;28;20053;-64
2023/05/22 07:25:23;;;;;;;88.83;53.60;;;;;;;;;;5030870;28;20128;-65
2023/05/22 07:27:49;;;;;;;80.43;51.43;;;;;;;;;;5036870;28;20499;-64
2023/05/22 07:30:15;;;;;;;80.53;51.73;;;;;;;;;;5049462;28;20057;-64
2023/05/22 07:32:41;;;;;;;52.57;41.33;;;;;;;;;;5042309;28;20117;-64
2023/05/22 07:35:09;;;;;;;49.23;37.93;;;;;;;;;;5027867;28;20049;-64
2023/05/22 07:37:36;;;;;;;76.00;46.13;;;;;;;;;;5047740;28;20051;-64
2023/05/22 07:40:04;;;;;;;63.87;43.50;;;;;;;;;;5040573;28;20057;-64
2023/05/22 07:42:30;;;;;;;74.50;46.57;;;;;;;;;;5047133;28;20272;-64
2023/05/22 07:44:56;;;;;;;76.77;49.43;;;;;;;;;;5048835;28;20888;-63
2023/05/22 07:47:22;;;;;;;69.83;43.63;;;;;;;;;;5049508;28;20071;-64
2023/05/22 07:49:48;;;;;;;63.27;42.83;;;;;;;;;;5028745;28;20038;-64
2023/05/22 07:52:14;;;;;;;71.43;44.47;;;;;;;;;;5029226;28;20136;-64
2023/05/22 07:54:41;;;;;;;54.33;38.00;;;;;;;;;;5029078;28;20107;-63
2023/05/22 07:57:07;;;;;;;72.67;44.27;;;;;;;;;;5036866;28;20049;-63
2023/05/22 07:59:34;;;;;;;55.63;38.37;;;;;;;;;;5046820;28;20045;-63
2023/05/22 08:02:01;;;;;;;71.63;45.27;;;;;;;;;;5049039;28;20095;-64
2023/05/22 08:04:28;;;;;;;55.77;37.93;;;;;;;;;;5048534;28;20075;-63
2023/05/22 08:06:56;;;;;;;49.03;36.83;;;;;;;;;;5048660;28;20135;-64
2023/05/22 08:09:22;;;;;;;45.20;35.17;;;;;;;;;;5048450;28;20060;-64
2023/05/22 08:11:48;;;;;;;31.07;27.63;;;;;;;;;;5048684;28;20045;-64
2023/05/22 08:14:14;;;;;;;39.43;30.17;;;;;;;;;;5048342;28;20052;-64
2023/05/22 08:16:40;;;;;;;51.33;35.40;;;;;;;;;;5048469;28;20107;-64
2023/05/22 08:19:06;;;;;;;37.27;29.87;;;;;;;;;;5048567;28;20049;-64
2023/05/22 08:21:33;;;;;;;38.33;27.93;;;;;;;;;;5048261;28;20076;-64
2023/05/22 08:23:59;;;;;;;34.57;27.33;;;;;;;;;;5048732;28;20080;-64
2023/05/22 08:26:25;;;;;;;39.53;29.03;;;;;;;;;;5048356;28;20419;-64
2023/05/22 08:28:51;;;;;;;28.43;20.73;;;;;;;;;;5047653;28;20179;-63
2023/05/22 08:31:17;;;;;;;27.57;22.70;;;;;;;;;;5048381;28;20052;-63
2023/05/22 08:33:43;;;;;;;26.77;22.00;;;;;;;;;;5048438;28;20041;-63
2023/05/22 08:36:10;;;;;;;24.87;20.23;;;;;;;;;;5048036;28;20045;-64
2023/05/22 08:38:36;;;;;;;28.13;22.47;;;;;;;;;;5047868;28;20051;-63
2023/05/22 08:41:04;;;;;;;26.87;21.80;;;;;;;;;;5048409;28;20048;-63
2023/05/22 08:43:30;;;;;;;31.50;20.63;;;;;;;;;;5047772;28;20136;-64
2023/05/22 08:45:59;;;;;;;25.67;22.13;;;;;;;;;;5048204;28;20056;-63
2023/05/22 08:48:27;;;;;;;24.07;19.80;;;;;;;;;;5047607;28;20051;-63
2023/05/22 08:50:57;;;;;;;23.60;18.77;;;;;;;;;;5047655;28;20041;-63
2023/05/22 08:53:24;;;;;;;22.60;16.70;;;;;;;;;;5047695;28;20056;-63
2023/05/22 08:55:53;;;;;;;19.77;17.10;;;;;;;;;;5047168;28;20037;-63
2023/05/22 08:58:20;;;;;;;20.13;15.50;;;;;;;;;;5047427;28;20055;-63
2023/05/22 09:00:46;;;;;;;18.90;14.80;;;;;;;;;;5047064;28;20045;-63
2023/05/22 09:03:13;;;;;;;19.67;15.17;;;;;;;;;;5047686;28;20059;-63
2023/05/22 09:05:40;;;;;;;18.63;13.63;;;;;;;;;;5047401;28;20434;-63
2023/05/22 09:08:09;;;;;;;18.80;15.40;;;;;;;;;;5046587;28;20055;-62
2023/05/22 09:10:36;;;;;;;18.83;12.33;;;;;;;;;;5048459;28;20053;-63
2023/05/22 09:13:07;;;;;;;15.67;13.27;;;;;;;;;;5051155;28;20082;-63
2023/05/22 09:15:34;;;;;;;14.97;12.13;;;;;;;;;;5051346;28;20128;-63
2023/05/22 09:18:00;;;;;;;18.97;13.00;;;;;;;;;;5051251;28;20072;-62
2023/05/22 09:20:26;;;;;;;18.33;11.73;;;;;;;;;;5050720;28;20403;-62
2023/05/22 09:22:52;;;;;;;15.63;10.70;;;;;;;;;;5051111;28;20080;-62
2023/05/22 09:25:19;;;;;;;13.07;10.63;;;;;;;;;;5051074;28;20037;-62
2023/05/22 09:27:46;;;;;;;17.90;10.53;;;;;;;;;;5050409;28;20400;-63
2023/05/22 09:30:15;;;;;;;20.43;11.30;;;;;;;;;;5050893;28;20053;-62
2023/05/22 09:32:42;;;;;;;13.52;10.02;;;;;;;;;;5048926;28;20075;-62
2023/05/22 09:35:08;;;;;;;17.00;12.37;;;;;;;;;;5051055;28;20162;-63
2023/05/22 09:37:36;;;;;;;15.25;11.48;;;;;;;;;;5050822;28;20581;-62
2023/05/22 09:40:05;;;;;;;15.55;10.23;;;;;;;;;;5050403;28;20333;-62
2023/05/22 09:42:35;;;;;;;17.90;9.63;;;;;;;;;;5050176;28;20132;-62
2023/05/22 09:45:05;;;;;;;16.38;9.77;;;;;;;;;;5050652;28;20134;-62
2023/05/22 09:47:33;;;;;;;15.25;10.02;;;;;;;;;;5050520;28;20174;-62
2023/05/22 09:50:00;;;;;;;16.30;10.50;;;;;;;;;;5051006;28;20124;-62
2023/05/22 09:52:28;;;;;;;11.77;9.85;;;;;;;;;;5049706;28;20036;-62
2023/05/22 09:54:55;;;;;;;16.40;10.90;;;;;;;;;;5050449;28;20109;-63
2023/05/22 09:57:23;;;;;;;17.55;9.98;;;;;;;;;;5048954;28;20093;-62
2023/05/22 09:59:53;;;;;;;17.30;10.02;;;;;;;;;;5050278;28;20451;-62
2023/05/22 10:02:23;;;;;;;17.60;9.93;;;;;;;;;;5050526;28;20088;-63
2023/05/22 10:04:50;;;;;;;17.98;10.50;;;;;;;;;;5050014;28;20044;-63
2023/05/22 10:07:21;;;;;;;17.23;11.25;;;;;;;;;;5049850;28;20048;-63
2023/05/22 10:09:51;;;;;;;15.40;10.70;;;;;;;;;;5050222;28;20074;-62
2023/05/22 10:12:19;;;;;;;13.80;10.05;;;;;;;;;;5049738;28;20047;-62
2023/05/22 10:14:45;;;;;;;17.40;10.10;;;;;;;;;;5050046;28;20124;-62
2023/05/22 10:17:11;;;;;;;19.13;9.30;;;;;;;;;;5049743;28;20048;-62
2023/05/22 10:19:38;;;;;;;14.45;10.77;;;;;;;;;;5049532;28;20520;-62
2023/05/22 10:22:04;;;;;;;13.95;10.98;;;;;;;;;;5049742;28;20123;-62
2023/05/22 10:24:31;;;;;;;18.55;10.20;;;;;;;;;;5049905;28;20052;-62
2023/05/22 10:26:57;;;;;;;16.77;11.32;;;;;;;;;;5049649;28;20106;-62
2023/05/22 10:29:33;;;;;;;15.93;9.98;;;;;;;;;;5049222;28;20190;-63
2023/05/22 10:32:05;;;;;;;21.35;11.30;;;;;;;;;;5049631;28;20055;-63
2023/05/22 10:34:39;;;;;;;18.67;11.38;;;;;;;;;;5049559;28;20041;-64
2023/05/22 10:37:12;;;;;;;14.32;11.10;;;;;;;;;;5049846;28;20051;-63
2023/05/22 10:39:47;;;;;;;16.92;10.88;;;;;;;;;;5048864;28;20407;-63
2023/05/22 10:42:14;;;;;;;13.80;10.60;;;;;;;;;;5049976;28;20163;-63
2023/05/22 10:44:40;;;;;;;14.13;11.18;;;;;;;;;;5049273;28;20052;-63
2023/05/22 10:47:10;;;;;;;19.65;12.18;;;;;;;;;;5049022;28;20049;-63
2023/05/22 10:49:36;;;;;;;16.42;11.85;;;;;;;;;;5049290;28;20198;-64
2023/05/22 10:52:05;;;;;;;20.10;12.65;;;;;;;;;;5049298;28;20045;-64
2023/05/22 10:54:44;;;;;;;14.20;11.30;;;;;;;;;;5049557;28;20045;-64
2023/05/22 10:57:14;;;;;;;17.05;10.07;;;;;;;;;;5048728;28;20049;-64
2023/05/22 10:59:41;;;;;;;13.35;10.88;;;;;;;;;;5049144;28;20364;-64
2023/05/22 11:02:17;;;;;;;14.43;10.70;;;;;;;;;;5049574;28;20127;-64
2023/05/22 11:04:43;;;;;;;12.85;10.85;;;;;;;;;;5049719;28;20049;-64
2023/05/22 11:07:12;;;;;;;14.00;10.80;;;;;;;;;;5048189;28;20563;-64
2023/05/22 11:09:47;;;;;;;15.93;11.40;;;;;;;;;;5048940;28;20051;-64
2023/05/22 11:12:29;;;;;;;15.73;11.35;;;;;;;;;;5048993;28;20044;-64
2023/05/22 11:15:01;;;;;;;17.83;11.60;;;;;;;;;;5048970;28;20048;-64
2023/05/22 11:17:27;;;;;;;14.82;11.55;;;;;;;;;;5048556;28;20053;-64
2023/05/22 11:20:11;;;;;;;14.13;11.00;;;;;;;;;;5048805;28;20368;-65
2023/05/22 11:22:39;;;;;;;13.55;11.48;;;;;;;;;;5048365;28;20053;-65
2023/05/22 11:25:07;;;;;;;13.52;11.55;;;;;;;;;;5035269;28;20049;-65
2023/05/22 11:27:34;;;;;;;13.43;11.27;;;;;;;;;;5049107;28;20080;-65
2023/05/22 11:30:00;;;;;;;13.48;12.10;;;;;;;;;;5040027;28;20104;-64
2023/05/22 11:32:27;;;;;;;13.00;11.55;;;;;;;;;;5028227;28;20111;-65
2023/05/22 11:34:53;;;;;;;12.10;10.63;;;;;;;;;;5027937;28;20521;-65
2023/05/22 11:37:20;;;;;;;13.55;12.10;;;;;;;;;;5031410;28;20052;-65
2023/05/22 11:39:51;;;;;;;13.18;11.80;;;;;;;;;;5048448;28;20118;-65
2023/05/22 11:42:18;;;;;;;11.40;10.27;;;;;;;;;;5048499;28;20055;-65
2023/05/22 11:44:44;;;;;;;12.02;10.75;;;;;;;;;;5048237;28;20041;-64
2023/05/22 11:47:10;;;;;;;14.00;11.02;;;;;;;;;;5048124;28;20082;-65
2023/05/22 11:49:36;;;;;;;13.10;11.02;;;;;;;;;;5048414;28;20064;-65
2023/05/22 11:52:02;;;;;;;15.40;11.90;;;;;;;;;;5039951;28;20033;-65
2023/05/22 11:54:31;;;;;;;14.45;11.30;;;;;;;;;;5028108;28;20530;-65
2023/05/22 11:56:58;;;;;;;15.40;11.10;;;;;;;;;;5028311;28;20045;-65
2023/05/22 11:59:24;;;;;;;14.00;10.68;;;;;;;;;;5028397;28;20077;-65
2023/05/22 12:01:50;;;;;;;15.60;12.23;;;;;;;;;;5028303;28;20112;-65
2023/05/22 12:04:16;;;;;;;11.82;10.63;;;;;;;;;;5026639;28;20388;-65
2023/05/22 12:06:42;;;;;;;12.85;10.00;;;;;;;;;;5031528;28;20040;-65
2023/05/22 12:09:08;;;;;;;13.93;10.65;;;;;;;;;;5047691;28;20054;-65
2023/05/22 12:11:35;;;;;;;12.68;9.38;;;;;;;;;;5037401;28;20065;-66
2023/05/22 12:14:03;;;;;;;12.77;10.70;;;;;;;;;;5029620;28;20083;-65
2023/05/22 12:16:34;;;;;;;10.65;9.38;;;;;;;;;;5026619;28;20467;-65
2023/05/22 12:19:04;;;;;;;15.23;10.30;;;;;;;;;;5037897;28;20427;-66
2023/05/22 12:21:31;;;;;;;12.20;10.30;;;;;;;;;;5042225;28;20122;-65
2023/05/22 12:23:57;;;;;;;11.48;10.27;;;;;;;;;;5041514;28;20048;-66
2023/05/22 12:26:23;;;;;;;13.02;10.30;;;;;;;;;;5046913;28;20406;-65
2023/05/22 12:28:56;;;;;;;15.02;9.60;;;;;;;;;;5030918;28;20045;-66
2023/05/22 12:31:23;;;;;;;14.63;9.85;;;;;;;;;;5035649;28;20064;-66
2023/05/22 12:33:52;;;;;;;13.98;10.35;;;;;;;;;;5047292;28;20372;-65
2023/05/22 12:36:18;;;;;;;13.00;10.75;;;;;;;;;;5047868;28;20449;-66
2023/05/22 12:38:45;;;;;;;11.35;9.82;;;;;;;;;;5046995;28;20136;-66
2023/05/22 12:41:11;;;;;;;12.98;10.10;;;;;;;;;;5045744;28;20048;-66
2023/05/22 12:43:37;;;;;;;15.40;10.02;;;;;;;;;;5046811;28;20111;-67
2023/05/22 12:46:03;;;;;;;11.07;9.73;;;;;;;;;;5050833;28;20325;-65
2023/05/22 12:48:29;;;;;;;12.10;10.35;;;;;;;;;;5041943;28;20415;-66
2023/05/22 12:50:55;;;;;;;13.25;11.88;;;;;;;;;;5032248;28;20037;-66
2023/05/22 12:53:21;;;;;;;14.48;11.65;;;;;;;;;;5034228;28;20437;-66
2023/05/22 12:55:47;;;;;;;14.30;11.57;;;;;;;;;;5050930;28;20081;-65
2023/05/22 12:58:13;;;;;;;16.15;11.10;;;;;;;;;;5051587;28;20049;-65
2023/05/22 13:00:39;;;;;;;12.82;10.50;;;;;;;;;;5050614;28;20586;-65
2023/05/22 13:03:05;;;;;;;13.70;9.32;;;;;;;;;;5043436;28;20045;-65
2023/05/22 13:05:31;;;;;;;14.73;10.43;;;;;;;;;;5050483;28;20071;-65
2023/05/22 13:07:57;;;;;;;12.50;10.27;;;;;;;;;;5051436;28;20045;-65
2023/05/22 13:10:23;;;;;;;13.18;10.82;;;;;;;;;;5059032;28;20151;-65
2023/05/22 13:12:50;;;;;;;12.05;10.85;;;;;;;;;;5051507;28;20072;-65
2023/05/22 13:15:16;;;;;;;12.38;11.10;;;;;;;;;;5051524;28;20075;-65
2023/05/22 13:17:43;;;;;;;13.25;10.35;;;;;;;;;;5050258;28;20507;-65
2023/05/22 13:20:09;;;;;;;12.23;9.95;;;;;;;;;;5052585;28;20478;-65
2023/05/22 13:22:35;;;;;;;13.50;9.30;;;;;;;;;;5063703;28;20127;-65
2023/05/22 13:25:01;;;;;;;12.90;9.27;;;;;;;;;;5071409;28;20045;-65
2023/05/22 13:27:27;;;;;;;14.38;11.23;;;;;;;;;;5071517;28;20044;-65
2023/05/22 13:29:53;;;;;;;17.67;11.10;;;;;;;;;;5071234;28;20053;-65
2023/05/22 13:32:19;;;;;;;18.05;11.57;;;;;;;;;;5071335;28;20144;-65
2023/05/22 13:34:45;;;;;;;12.38;10.80;;;;;;;;;;5061375;28;20049;-66
2023/05/22 13:37:12;;;;;;;12.60;11.30;;;;;;;;;;5054337;28;20495;-65
2023/05/22 13:39:38;;;;;;;16.52;12.27;;;;;;;;;;5063948;28;20037;-65
2023/05/22 13:42:05;;;;;;;13.68;10.23;;;;;;;;;;5051260;28;20711;-65
2023/05/22 13:44:31;;;;;;;16.15;11.75;;;;;;;;;;5050745;28;20590;-65
2023/05/22 13:46:57;;;;;;;13.70;11.15;;;;;;;;;;5051203;28;20083;-66
2023/05/22 13:49:23;;;;;;;13.35;11.18;;;;;;;;;;5050264;28;20084;-66
2023/05/22 13:51:49;;;;;;;13.95;11.20;;;;;;;;;;5064816;28;20045;-65
2023/05/22 13:54:15;;;;;;;18.13;11.63;;;;;;;;;;5030799;28;20056;-65
2023/05/22 13:56:42;;;;;;;15.40;12.02;;;;;;;;;;5029988;28;20053;-65
2023/05/22 13:59:10;;;;;;;21.42;12.88;;;;;;;;;;5030790;28;20037;-65
2023/05/22 14:01:36;;;;;;;18.23;12.93;;;;;;;;;;5030630;28;20056;-65
2023/05/22 14:04:02;;;;;;;13.60;11.43;;;;;;;;;;5029845;28;20099;-65
2023/05/22 14:06:28;;;;;;;14.02;11.20;;;;;;;;;;5029527;28;20049;-65